createdAt,value
2023-04-25T00:01:55.705Z,97345.03
2023-04-25T00:05:00.246Z,97347.22
2023-04-25T00:08:05.757Z,97344.97
2023-04-25T00:11:09.024Z,97333.41
2023-04-25T00:14:12.224Z,97337.66
2023-04-25T00:17:15.938Z,97348.41
2023-04-25T00:20:19.356Z,97358.16
2023-04-25T00:23:24.920Z,97361.81
2023-04-25T00:26:29.126Z,97360.19
2023-04-25T00:29:32.309Z,97360.19
2023-04-25T00:32:35.726Z,97367.00
2023-04-25T00:35:39.297Z,97341.28
2023-04-25T00:38:43.917Z,97359.59
2023-04-25T00:41:47.528Z,97356.47
2023-04-25T00:44:52.001Z,97336.63
2023-04-25T00:47:56.477Z,97352.94
2023-04-25T00:51:01.004Z,97340.66
2023-04-25T00:54:05.696Z,97366.50
2023-04-25T00:57:09.298Z,97363.66
2023-04-25T01:00:14.326Z,97353.78
2023-04-25T01:03:20.764Z,97364.28
2023-04-25T01:06:24.402Z,97332.16
2023-04-25T01:09:29.694Z,97351.53
2023-04-25T01:12:32.936Z,97337.88
2023-04-25T01:15:36.919Z,97347.13
2023-04-25T01:18:41.271Z,97326.31
2023-04-25T01:21:46.866Z,97349.88
2023-04-25T01:24:50.778Z,97335.94
2023-04-25T01:27:54.347Z,97317.84
2023-04-25T01:30:58.855Z,97323.00
2023-04-25T01:34:02.200Z,97329.72
2023-04-25T01:37:07.341Z,97338.31
2023-04-25T01:40:12.361Z,97323.41
2023-04-25T01:43:16.015Z,97353.84
2023-04-25T01:46:19.388Z,97325.50
2023-04-25T01:49:24.702Z,97334.22
2023-04-25T01:52:29.338Z,97350.13
2023-04-25T01:55:33.587Z,97339.97
2023-04-25T01:58:44.635Z,97357.13
2023-04-25T02:02:08.187Z,97323.75
2023-04-25T02:05:12.957Z,97353.94
2023-04-25T02:08:20.340Z,97347.78
2023-04-25T02:11:23.600Z,97342.06
2023-04-25T02:14:47.292Z,97344.84
2023-04-25T02:18:23.227Z,97340.75
2023-04-25T02:21:27.500Z,97347.78
2023-04-25T02:24:32.856Z,97304.72
2023-04-25T02:27:36.072Z,97322.34
2023-04-25T02:30:41.334Z,97353.81
2023-04-25T02:33:45.111Z,97351.00
2023-04-25T02:36:48.310Z,97298.19
2023-04-25T02:39:55.964Z,97339.34
2023-04-25T02:42:59.238Z,97314.00
2023-04-25T02:46:03.460Z,97327.09
2023-04-25T02:49:07.069Z,97333.84
2023-04-25T02:52:11.628Z,97314.81
2023-04-25T02:55:16.558Z,97305.16
2023-04-25T02:58:20.649Z,97330.50
2023-04-25T03:01:26.871Z,97322.34
2023-04-25T03:04:30.204Z,97316.41
2023-04-25T03:07:33.438Z,97305.81
2023-04-25T03:10:38.023Z,97319.78
2023-04-25T03:13:43.439Z,97323.25
2023-04-25T03:16:47.664Z,97318.94
2023-04-25T03:19:50.825Z,97325.44
2023-04-25T03:22:55.198Z,97299.53
2023-04-25T03:25:59.805Z,97315.16
2023-04-25T03:29:03.014Z,97275.13
2023-04-25T03:34:51.658Z,97316.00
2023-04-25T03:37:55.028Z,97297.94
2023-04-25T03:41:04.347Z,97310.34
2023-04-25T03:44:25.123Z,97309.34
2023-04-25T03:47:28.674Z,97240.72
2023-04-25T03:50:34.406Z,97308.66
2023-04-25T03:53:38.039Z,97315.34
2023-04-25T03:56:56.510Z,97308.47
2023-04-25T04:00:04.456Z,97317.22
2023-04-25T04:03:16.781Z,97307.56
2023-04-25T04:06:22.099Z,97317.56
2023-04-25T04:09:31.288Z,97289.03
2023-04-25T04:12:36.462Z,97320.84
2023-04-25T04:15:39.808Z,97317.59
2023-04-25T04:18:43.312Z,97308.38
2023-04-25T04:21:47.893Z,97317.44
2023-04-25T04:24:51.586Z,97323.75
2023-04-25T04:28:27.682Z,97301.41
2023-04-25T04:31:38.749Z,97324.91
2023-04-25T04:34:43.514Z,97321.97
2023-04-25T04:37:51.519Z,97313.22
2023-04-25T04:40:56.862Z,97308.59
2023-04-25T04:44:17.337Z,97307.09
2023-04-25T04:47:42.546Z,97259.47
2023-04-25T04:50:55.761Z,97321.31
2023-04-25T04:54:20.606Z,97319.66
2023-04-25T04:57:47.183Z,97321.75
2023-04-25T05:01:09.805Z,97300.72
2023-04-25T05:04:31.540Z,97325.06
2023-04-25T05:07:42.886Z,97325.16
2023-04-25T05:11:23.238Z,97322.50
2023-04-25T05:14:46.750Z,97332.47
2023-04-25T05:18:08.742Z,97330.22
2023-04-25T05:21:32.349Z,97242.09
2023-04-25T05:25:06.547Z,97286.41
2023-04-25T05:28:27.871Z,97320.59
2023-04-25T05:31:50.188Z,97332.66
2023-04-25T05:34:54.375Z,97330.50
2023-04-25T05:38:13.574Z,97323.13
2023-04-25T05:41:48.823Z,97338.16
2023-04-25T05:45:16.326Z,97323.13
2023-04-25T05:48:43.220Z,97311.91
2023-04-25T05:51:57.982Z,97348.97
2023-04-25T05:55:33.181Z,97344.22
2023-04-25T05:58:39.702Z,97314.22
2023-04-25T06:01:44.661Z,97332.66
2023-04-25T06:04:48.114Z,97355.09
2023-04-25T06:07:52.531Z,97340.31
2023-04-25T06:10:55.843Z,97350.72
2023-04-25T06:14:00.122Z,97354.19
2023-04-25T06:17:07.502Z,97348.34
2023-04-25T06:20:11.900Z,97360.94
2023-04-25T06:23:17.132Z,97352.09
2023-04-25T06:26:28.635Z,97358.28
2023-04-25T06:29:31.843Z,97355.59
2023-04-25T06:32:36.508Z,97360.75
2023-04-25T06:35:40.679Z,97351.13
2023-04-25T06:38:48.058Z,97358.44
2023-04-25T06:41:51.595Z,97371.63
2023-04-25T06:45:14.793Z,97386.28
2023-04-25T06:48:19.807Z,97428.16
2023-04-25T06:51:25.324Z,97397.97
2023-04-25T06:54:30.806Z,97400.31
2023-04-25T06:57:42.725Z,97394.75
2023-04-25T07:01:12.055Z,97404.28
2023-04-25T07:04:17.305Z,97380.59
2023-04-25T07:07:30.724Z,97386.63
2023-04-25T07:10:36.131Z,97381.59
2023-04-25T07:13:40.295Z,97397.56
2023-04-25T07:16:43.928Z,97379.91
2023-04-25T07:19:49.028Z,97397.88
2023-04-25T07:22:52.248Z,97353.63
2023-04-25T07:25:56.832Z,97392.63
2023-04-25T07:29:02.433Z,97392.94
2023-04-25T07:32:06.124Z,97386.38
2023-04-25T07:35:12.677Z,97396.41
2023-04-25T07:38:15.970Z,97386.09
2023-04-25T07:41:19.486Z,97392.94
2023-04-25T07:44:23.297Z,97364.47
2023-04-25T07:47:26.798Z,97395.78
2023-04-25T07:50:31.783Z,97416.31
2023-04-25T07:53:36.718Z,97407.91
2023-04-25T07:56:52.224Z,97396.19
2023-04-25T07:59:57.142Z,97430.38
2023-04-25T08:03:00.736Z,97447.94
2023-04-25T08:06:08.183Z,97428.47
2023-04-25T08:09:18.698Z,97420.13
2023-04-25T08:12:23.552Z,97456.44
2023-04-25T08:15:27.694Z,97398.28
2023-04-25T08:18:31.818Z,97440.28
2023-04-25T08:21:36.801Z,97464.16
2023-04-25T08:24:43.473Z,97464.66
2023-04-25T08:27:46.735Z,97465.22
2023-04-25T08:30:50.161Z,97461.31
2023-04-25T08:33:54.730Z,97467.59
2023-04-25T08:37:07.186Z,97466.41
2023-04-25T08:40:17.751Z,97440.16
2023-04-25T08:43:21.986Z,97436.81
2023-04-25T08:46:25.819Z,97457.78
2023-04-25T08:49:48.102Z,97441.56
2023-04-25T08:52:56.368Z,97457.78
2023-04-25T08:56:02.656Z,97400.44
2023-04-25T08:59:08.957Z,97425.13
2023-04-25T09:02:15.630Z,97455.53
2023-04-25T09:05:21.748Z,97429.66
2023-04-25T09:08:30.096Z,97441.81
2023-04-25T09:11:34.554Z,97459.84
2023-04-25T09:14:41.404Z,97418.78
2023-04-25T09:17:58.568Z,97471.59
2023-04-25T09:21:14.190Z,97456.22
2023-04-25T09:24:35.393Z,97478.59
2023-04-25T09:27:50.877Z,97474.59
2023-04-25T09:34:52.984Z,97465.19
2023-04-25T09:37:58.114Z,97443.19
2023-04-25T09:41:25.548Z,97441.84
2023-04-25T09:44:30.994Z,97453.06
2023-04-25T09:47:39.741Z,97459.78
2023-04-25T09:50:46.320Z,97456.66
2023-04-25T09:53:52.182Z,97452.75
2023-04-25T09:57:18.169Z,97450.22
2023-04-25T10:00:23.402Z,97472.47
2023-04-25T10:03:27.907Z,97477.53
2023-04-25T10:06:46.013Z,97430.56
2023-04-25T10:09:51.778Z,97467.59
2023-04-25T10:12:56.179Z,97423.34
2023-04-25T10:15:59.781Z,97365.03
2023-04-25T10:19:04.037Z,97470.03
2023-04-25T10:22:16.838Z,97464.16
2023-04-25T10:25:20.370Z,97464.56
2023-04-25T10:28:23.539Z,97455.03
2023-04-25T10:31:26.941Z,97398.31
2023-04-25T10:34:41.874Z,97428.56
2023-04-25T10:38:01.237Z,97454.53
2023-04-25T10:41:09.950Z,97454.53
2023-04-25T10:44:13.697Z,97439.16
2023-04-25T10:47:36.954Z,97453.84
2023-04-25T10:50:41.454Z,97448.94
2023-04-25T10:53:48.012Z,97378.91
2023-04-25T10:56:54.182Z,97447.94
2023-04-25T11:00:01.378Z,97417.81
2023-04-25T11:03:05.997Z,97449.81
2023-04-25T11:06:17.516Z,97457.47
2023-04-25T11:09:26.257Z,97455.38
2023-04-25T11:12:29.525Z,97425.28
2023-04-25T11:15:32.832Z,97449.78
2023-04-25T11:18:36.153Z,97436.34
2023-04-25T11:21:39.504Z,97330.44
2023-04-25T11:24:44.142Z,97447.38
2023-04-25T11:27:54.004Z,97383.03
2023-04-25T11:30:58.034Z,97423.75
2023-04-25T11:34:01.602Z,97452.56
2023-04-25T11:37:05.256Z,97460.16
2023-04-25T11:40:12.487Z,97412.22
2023-04-25T11:43:16.357Z,97439.91
2023-04-25T11:46:21.163Z,97460.00
2023-04-25T11:49:25.870Z,97372.94
2023-04-25T11:52:41.391Z,97455.16
2023-04-25T11:55:46.267Z,97466.00
2023-04-25T11:59:07.988Z,97473.13
2023-04-25T12:02:12.503Z,97470.13
2023-04-25T12:05:31.195Z,97452.38
2023-04-25T12:08:35.905Z,97413.59
2023-04-25T12:11:47.919Z,97473.16
2023-04-25T12:14:51.204Z,97471.31
2023-04-25T12:17:56.209Z,97435.34
2023-04-25T12:21:01.040Z,97287.38
2023-04-25T12:24:13.297Z,97477.97
2023-04-25T12:27:19.638Z,97462.09
2023-04-25T12:30:23.034Z,97498.16
2023-04-25T12:33:27.109Z,97501.66
2023-04-25T12:36:30.269Z,97450.56
2023-04-25T12:39:33.594Z,97491.22
2023-04-25T12:42:38.189Z,97457.34
2023-04-25T12:45:41.849Z,97462.31
2023-04-25T12:48:45.068Z,97492.53
2023-04-25T12:51:49.015Z,97443.97
2023-04-25T12:54:52.322Z,97525.25
2023-04-25T12:57:56.916Z,97506.59
2023-04-25T13:01:00.182Z,97528.56
2023-04-25T13:04:03.581Z,97532.00
2023-04-25T13:07:07.195Z,97447.50
2023-04-25T13:10:11.626Z,97538.06
2023-04-25T13:13:17.506Z,97525.69
2023-04-25T13:16:21.982Z,97538.41
2023-04-25T13:19:26.607Z,97520.41
2023-04-25T13:22:29.989Z,97521.16
2023-04-25T13:25:33.341Z,97538.00
2023-04-25T13:28:37.975Z,97521.69
2023-04-25T13:31:41.293Z,97538.00
2023-04-25T13:34:44.526Z,97539.78
2023-04-25T13:37:47.795Z,97549.84
2023-04-25T13:40:53.116Z,97554.50
2023-04-25T13:43:57.707Z,97516.50
2023-04-25T13:47:01.848Z,97552.25
2023-04-25T13:50:11.761Z,97526.44
2023-04-25T13:53:15.488Z,97332.19
2023-04-25T13:56:20.583Z,97575.41
2023-04-25T13:59:25.109Z,97509.47
2023-04-25T14:02:28.393Z,97558.94
2023-04-25T14:05:31.763Z,97514.81
2023-04-25T14:08:34.940Z,97587.47
2023-04-25T14:11:38.486Z,97568.97
2023-04-25T14:14:43.052Z,97586.69
2023-04-25T14:17:46.850Z,97593.22
2023-04-25T14:20:50.226Z,97579.53
2023-04-25T14:23:53.775Z,97556.72
2023-04-25T14:26:57.792Z,97507.84
2023-04-25T14:30:02.476Z,97598.84
2023-04-25T14:33:06.230Z,97587.97
2023-04-25T14:36:09.612Z,97571.72
2023-04-25T14:39:13.493Z,97611.13
2023-04-25T14:42:17.085Z,97591.81
2023-04-25T14:45:21.974Z,97627.25
2023-04-25T14:48:25.575Z,97625.38
2023-04-25T14:51:28.961Z,97588.78
2023-04-25T14:54:32.246Z,97589.56
2023-04-25T14:57:35.996Z,97632.31
2023-04-25T15:00:41.432Z,97606.75
2023-04-25T15:03:44.904Z,97638.28
2023-04-25T15:06:48.229Z,97632.50
2023-04-25T15:09:53.957Z,97642.31
2023-04-25T15:12:57.163Z,97610.66
2023-04-25T15:16:01.974Z,97589.22
2023-04-25T15:19:05.200Z,97643.78
2023-04-25T15:22:08.546Z,97616.13
2023-04-25T15:25:12.705Z,97615.66
2023-04-25T15:28:16.774Z,97647.13
2023-04-25T15:34:54.644Z,97572.06
2023-04-25T15:37:57.740Z,97662.34
2023-04-25T15:41:00.940Z,97586.72
2023-04-25T15:44:04.268Z,97660.59
2023-04-25T15:47:07.976Z,97663.63
2023-04-25T15:50:17.200Z,97650.03
2023-04-25T15:53:20.512Z,97641.94
2023-04-25T15:56:24.079Z,97660.06
2023-04-25T15:59:27.457Z,97664.34
2023-04-25T16:02:31.805Z,97637.38
2023-04-25T16:05:36.562Z,97602.34
2023-04-25T16:08:39.996Z,97673.00
2023-04-25T16:11:43.317Z,97663.09
2023-04-25T16:14:46.512Z,97679.00
2023-04-25T16:17:50.070Z,97636.22
2023-04-25T16:20:54.844Z,97672.94
2023-04-25T16:23:58.322Z,97585.34
2023-04-25T16:27:02.904Z,97651.31
2023-04-25T16:30:08.174Z,97667.59
2023-04-25T16:33:11.898Z,97683.47
2023-04-25T16:36:16.564Z,97683.44
2023-04-25T16:39:21.999Z,97659.47
2023-04-25T16:42:25.783Z,97617.53
2023-04-25T16:45:28.966Z,97679.09
2023-04-25T16:48:32.214Z,97562.06
2023-04-25T16:51:37.077Z,97686.00
2023-04-25T16:54:40.449Z,97690.81
2023-04-25T16:57:43.668Z,97685.72
2023-04-25T17:00:47.810Z,97685.25
2023-04-25T17:03:51.896Z,97680.09
2023-04-25T17:06:57.473Z,97685.09
2023-04-25T17:10:01.170Z,97693.94
2023-04-25T17:13:04.542Z,97708.63
2023-04-25T17:16:10.851Z,97689.00
2023-04-25T17:19:14.080Z,97708.72
2023-04-25T17:22:18.626Z,97689.53
2023-04-25T17:25:21.838Z,97694.97
2023-04-25T17:28:25.031Z,97711.47
2023-04-25T17:31:28.346Z,97724.47
2023-04-25T17:34:31.868Z,97695.31
2023-04-25T17:37:36.486Z,97731.88
2023-04-25T17:40:39.971Z,97714.81
2023-04-25T17:43:43.176Z,97733.81
2023-04-25T17:46:46.420Z,97745.47
2023-04-25T17:49:49.877Z,97719.16
2023-04-25T17:52:57.130Z,97732.41
2023-04-25T17:56:00.487Z,97747.56
2023-04-25T17:59:04.653Z,97750.75
2023-04-25T18:02:08.825Z,97760.06
2023-04-25T18:05:12.282Z,97755.22
2023-04-25T18:08:16.969Z,97683.19
2023-04-25T18:11:20.645Z,97762.84
2023-04-25T18:14:25.014Z,97763.75
2023-04-25T18:17:28.411Z,97757.78
2023-04-25T18:20:31.743Z,97744.09
2023-04-25T18:23:37.770Z,97758.91
2023-04-25T18:26:42.060Z,97755.22
2023-04-25T18:29:45.543Z,97763.34
2023-04-25T18:32:48.817Z,97780.13
2023-04-25T18:42:07.090Z,97792.31
2023-04-25T18:45:11.729Z,97785.34
2023-04-25T18:48:15.024Z,97814.28
2023-04-25T18:51:18.469Z,97735.16
2023-04-25T18:54:23.008Z,97833.22
2023-04-25T18:57:26.462Z,97835.03
2023-04-25T19:00:29.734Z,97814.72
2023-04-25T19:03:33.234Z,97821.22
2023-04-25T19:06:36.821Z,97844.41
2023-04-25T19:09:41.589Z,97848.53
2023-04-25T19:12:44.742Z,97848.47
2023-04-25T19:15:48.352Z,97853.50
2023-04-25T19:18:52.813Z,97846.25
2023-04-25T19:21:56.587Z,97856.56
2023-04-25T19:25:09.872Z,97861.13
2023-04-25T19:28:15.428Z,97864.78
2023-04-25T19:31:19.030Z,97869.00
2023-04-25T19:34:22.286Z,97869.34
2023-04-25T19:37:25.472Z,97873.88
2023-04-25T19:40:30.226Z,97871.00
2023-04-25T19:43:33.523Z,97875.44
2023-04-25T19:46:38.075Z,97864.41
2023-04-25T19:49:42.164Z,97873.59
2023-04-25T19:52:45.392Z,97872.56
2023-04-25T19:55:49.921Z,97860.50
2023-04-25T19:58:53.385Z,97881.22
2023-04-25T20:01:57.273Z,97850.59
2023-04-25T20:05:01.294Z,97885.75
2023-04-25T20:08:04.715Z,97869.78
2023-04-25T20:11:09.409Z,97849.00
2023-04-25T20:14:12.736Z,97888.47
2023-04-25T20:17:16.054Z,97870.31
2023-04-25T20:20:19.308Z,97905.00
2023-04-25T20:23:22.756Z,97888.75
2023-04-25T20:26:27.248Z,97905.59
2023-04-25T20:29:30.441Z,97894.94
2023-04-25T20:32:34.250Z,97895.84
2023-04-25T20:35:37.533Z,97902.00
2023-04-25T20:38:40.686Z,97899.91
2023-04-25T20:41:45.718Z,97898.97
2023-04-25T20:44:49.119Z,97831.63
2023-04-25T20:47:52.397Z,97919.19
2023-04-25T20:50:56.360Z,97906.66
2023-04-25T20:54:00.212Z,97905.31
2023-04-25T20:57:04.800Z,97920.31
2023-04-25T21:00:16.651Z,97917.16
2023-04-25T21:03:20.794Z,97921.69
2023-04-25T21:06:24.240Z,97905.97
2023-04-25T21:09:27.545Z,97931.16
2023-04-25T21:12:32.097Z,97931.94
2023-04-25T21:15:35.635Z,97935.94
2023-04-25T21:18:38.904Z,97889.72
2023-04-25T21:21:42.623Z,97940.94
2023-04-25T21:24:47.622Z,97931.47
2023-04-25T21:27:53.700Z,97869.00
2023-04-25T21:34:51.401Z,97716.56
2023-04-25T21:37:54.690Z,97608.19
2023-04-25T21:40:58.076Z,97590.53
2023-04-25T21:44:01.377Z,97901.31
2023-04-25T21:47:05.531Z,97726.25
2023-04-25T21:50:12.334Z,97748.91
2023-04-25T21:53:15.866Z,97961.78
2023-04-25T21:56:19.105Z,97686.81
2023-04-25T21:59:24.950Z,97674.63
2023-04-25T22:02:29.713Z,97757.72
2023-04-25T22:05:35.027Z,97960.25
2023-04-25T22:08:38.449Z,97698.19
2023-04-25T22:11:43.013Z,97721.25
2023-04-25T22:14:46.655Z,97760.69
2023-04-25T22:17:52.258Z,97759.75
2023-04-25T22:20:57.393Z,97804.19
2023-04-25T22:24:00.676Z,97965.28
2023-04-25T22:27:03.981Z,97905.31
2023-04-25T22:30:09.328Z,97675.09
2023-04-25T22:33:14.705Z,97967.50
2023-04-25T22:36:19.612Z,97712.47
2023-04-25T22:39:23.460Z,97756.66
2023-04-25T22:42:26.842Z,97886.31
2023-04-25T22:45:30.189Z,97828.84
2023-04-25T22:48:33.677Z,97914.81
2023-04-25T22:51:38.785Z,97674.75
2023-04-25T22:54:42.304Z,97896.97
2023-04-25T22:57:45.615Z,97976.13
2023-04-25T23:00:50.911Z,97956.03
2023-04-25T23:03:54.533Z,97780.31
2023-04-25T23:07:00.200Z,97761.63
2023-04-25T23:10:03.519Z,97781.56
2023-04-25T23:13:06.812Z,97814.13
2023-04-25T23:16:11.608Z,97661.59
2023-04-25T23:19:14.863Z,97732.19
2023-04-25T23:22:19.444Z,97759.00
2023-04-25T23:25:23.191Z,97632.31
2023-04-25T23:28:26.526Z,97990.91
2023-04-25T23:31:30.260Z,97662.91
2023-04-25T23:34:33.772Z,98013.78
2023-04-25T23:37:39.412Z,98027.25
2023-04-25T23:40:43.321Z,97712.41
2023-04-25T23:43:46.588Z,97853.78
2023-04-25T23:46:50.270Z,97790.78
2023-04-25T23:49:53.903Z,98017.34
2023-04-25T23:52:58.660Z,97700.69
2023-04-25T23:56:01.914Z,97695.59
2023-04-25T23:59:05.616Z,97728.88
